createdAt,value
2023-05-23T00:01:21.565Z,18.46
2023-05-23T00:03:49.591Z,18.49
2023-05-23T00:06:21.459Z,18.42
2023-05-23T00:08:48.441Z,18.41
2023-05-23T00:11:16.240Z,18.40
2023-05-23T00:13:42.892Z,18.31
2023-05-23T00:16:09.888Z,18.33
2023-05-23T00:18:37.019Z,18.32
2023-05-23T00:21:04.022Z,18.32
2023-05-23T00:23:34.386Z,18.35
2023-05-23T00:26:01.169Z,18.35
2023-05-23T00:28:28.206Z,18.39
2023-05-23T00:30:54.978Z,18.36
2023-05-23T00:33:22.529Z,18.44
2023-05-23T00:35:49.458Z,18.40
2023-05-23T00:38:16.800Z,18.35
2023-05-23T00:40:43.452Z,18.34
2023-05-23T00:43:13.198Z,18.26
2023-05-23T00:45:40.090Z,18.28
2023-05-23T00:48:07.158Z,18.23
2023-05-23T00:50:34.569Z,18.13
2023-05-23T00:53:01.574Z,18.15
2023-05-23T00:55:28.914Z,18.14
2023-05-23T00:57:58.596Z,18.11
2023-05-23T01:00:25.575Z,18.04
2023-05-23T01:02:52.671Z,18.05
2023-05-23T01:05:20.238Z,18.09
2023-05-23T01:07:47.524Z,18.03
2023-05-23T01:10:14.678Z,17.98
2023-05-23T01:12:43.841Z,17.96
2023-05-23T01:15:11.404Z,17.97
2023-05-23T01:17:50.945Z,17.98
2023-05-23T01:20:22.529Z,17.97
2023-05-23T01:22:55.527Z,18.01
2023-05-23T01:25:24.392Z,17.99
2023-05-23T01:27:51.791Z,17.95
2023-05-23T01:30:19.645Z,17.91
2023-05-23T01:32:47.074Z,17.96
2023-05-23T01:35:13.753Z,18.03
2023-05-23T01:37:41.212Z,17.96
2023-05-23T01:40:08.040Z,17.97
2023-05-23T01:42:36.502Z,17.93
2023-05-23T01:45:03.218Z,17.92
2023-05-23T01:47:34.410Z,17.84
2023-05-23T01:50:01.078Z,17.93
2023-05-23T01:52:27.733Z,18.04
2023-05-23T01:54:54.373Z,17.79
2023-05-23T01:57:21.202Z,17.95
2023-05-23T01:59:48.261Z,18.00
2023-05-23T02:02:15.492Z,18.07
2023-05-23T02:04:42.233Z,17.92
2023-05-23T02:07:09.340Z,18.04
2023-05-23T02:09:36.037Z,18.04
2023-05-23T02:12:02.676Z,18.01
2023-05-23T02:14:29.385Z,17.99
2023-05-23T02:16:56.165Z,17.98
2023-05-23T02:19:23.120Z,18.00
2023-05-23T02:21:50.009Z,17.91
2023-05-23T02:24:18.263Z,17.89
2023-05-23T02:26:45.807Z,17.93
2023-05-23T02:29:12.521Z,17.90
2023-05-23T02:31:39.257Z,17.87
2023-05-23T02:34:06.145Z,17.85
2023-05-23T02:36:33.574Z,17.90
2023-05-23T02:39:00.366Z,17.92
2023-05-23T02:41:27.258Z,17.98
2023-05-23T02:43:53.998Z,18.08
2023-05-23T02:46:20.780Z,18.06
2023-05-23T02:48:48.375Z,18.10
2023-05-23T02:51:15.078Z,18.09
2023-05-23T02:53:41.825Z,18.15
2023-05-23T02:56:08.992Z,18.15
2023-05-23T02:58:35.921Z,18.11
2023-05-23T03:01:02.994Z,18.12
2023-05-23T03:03:31.872Z,18.15
2023-05-23T03:05:58.744Z,18.20
2023-05-23T03:08:31.854Z,18.19
2023-05-23T03:10:58.680Z,18.17
2023-05-23T03:13:25.461Z,18.14
2023-05-23T03:15:52.314Z,18.15
2023-05-23T03:18:19.108Z,18.14
2023-05-23T03:20:46.423Z,18.19
2023-05-23T03:23:13.214Z,18.14
2023-05-23T03:25:40.178Z,18.17
2023-05-23T03:28:07.118Z,18.16
2023-05-23T03:30:33.895Z,18.18
2023-05-23T03:33:00.690Z,18.16
2023-05-23T03:35:29.173Z,18.21
2023-05-23T03:37:55.960Z,18.26
2023-05-23T03:40:22.851Z,18.34
2023-05-23T03:42:50.097Z,18.35
2023-05-23T03:45:16.931Z,18.36
2023-05-23T03:47:43.790Z,18.31
2023-05-23T03:50:10.870Z,18.26
2023-05-23T03:52:37.894Z,18.27
2023-05-23T03:55:05.314Z,18.26
2023-05-23T03:57:32.100Z,18.24
2023-05-23T03:59:58.984Z,18.21
2023-05-23T04:02:26.524Z,18.16
2023-05-23T04:04:54.444Z,18.07
2023-05-23T04:07:21.335Z,18.17
2023-05-23T04:09:48.553Z,18.15
2023-05-23T04:12:15.760Z,18.15
2023-05-23T04:14:42.671Z,18.15
2023-05-23T04:17:09.628Z,18.15
2023-05-23T04:19:37.484Z,18.19
2023-05-23T04:22:04.197Z,18.15
2023-05-23T04:24:30.992Z,18.06
2023-05-23T04:26:57.677Z,18.15
2023-05-23T04:29:26.438Z,18.26
2023-05-23T04:31:55.143Z,18.27
2023-05-23T04:34:22.807Z,18.24
2023-05-23T04:36:49.639Z,18.21
2023-05-23T04:39:16.707Z,18.21
2023-05-23T04:41:56.966Z,18.33
2023-05-23T04:44:45.017Z,18.37
2023-05-23T04:47:16.480Z,18.32
2023-05-23T04:50:02.399Z,18.35
2023-05-23T04:52:33.445Z,18.43
2023-05-23T04:55:00.861Z,18.40
2023-05-23T04:57:27.821Z,18.44
2023-05-23T04:59:54.582Z,18.43
2023-05-23T05:02:21.299Z,18.35
2023-05-23T05:04:48.030Z,18.38
2023-05-23T05:07:15.360Z,18.29
2023-05-23T05:09:42.249Z,18.34
2023-05-23T05:12:11.092Z,18.39
2023-05-23T05:14:39.470Z,18.40
2023-05-23T05:17:06.304Z,18.38
2023-05-23T05:19:41.423Z,18.37
2023-05-23T05:22:08.306Z,18.35
2023-05-23T05:24:35.596Z,18.29
2023-05-23T05:27:02.324Z,18.39
2023-05-23T05:29:29.701Z,18.41
2023-05-23T05:31:57.909Z,18.30
2023-05-23T05:34:24.626Z,18.37
2023-05-23T05:36:56.109Z,18.43
2023-05-23T05:39:24.900Z,18.47
2023-05-23T05:41:51.570Z,18.46
2023-05-23T05:44:18.986Z,18.46
2023-05-23T05:46:46.202Z,18.54
2023-05-23T05:49:13.000Z,18.47
2023-05-23T05:51:39.876Z,18.52
2023-05-23T05:54:06.736Z,18.56
2023-05-23T05:56:33.466Z,18.54
2023-05-23T05:59:00.433Z,18.60
2023-05-23T06:01:27.142Z,18.57
2023-05-23T06:03:54.162Z,18.65
2023-05-23T06:06:21.964Z,18.69
2023-05-23T06:08:49.571Z,18.74
2023-05-23T06:11:17.267Z,18.69
2023-05-23T06:13:44.013Z,18.53
2023-05-23T06:16:10.782Z,18.47
2023-05-23T06:18:37.635Z,18.36
2023-05-23T06:21:04.761Z,18.49
2023-05-23T06:23:33.405Z,18.67
2023-05-23T06:26:00.199Z,18.63
2023-05-23T06:28:26.847Z,18.71
2023-05-23T06:30:53.509Z,18.69
2023-05-23T06:33:20.300Z,18.78
2023-05-23T06:35:48.731Z,18.68
2023-05-23T06:38:17.684Z,18.77
2023-05-23T06:40:44.613Z,18.64
2023-05-23T06:43:11.824Z,18.57
2023-05-23T06:45:48.776Z,18.58
2023-05-23T06:48:15.623Z,18.75
2023-05-23T06:50:44.334Z,18.61
2023-05-23T06:53:11.946Z,18.78
2023-05-23T06:55:38.804Z,18.73
2023-05-23T06:58:07.607Z,18.62
2023-05-23T07:00:36.495Z,18.76
2023-05-23T07:03:11.557Z,18.82
2023-05-23T07:05:41.198Z,18.62
2023-05-23T07:08:11.515Z,18.64
2023-05-23T07:10:42.122Z,18.66
2023-05-23T07:13:26.752Z,18.57
2023-05-23T07:15:54.099Z,18.51
2023-05-23T07:18:20.957Z,18.27
2023-05-23T07:20:48.101Z,18.29
2023-05-23T07:23:17.441Z,18.23
2023-05-23T07:26:01.216Z,18.20
2023-05-23T07:28:33.993Z,18.24
2023-05-23T07:31:01.606Z,18.08
2023-05-23T07:33:30.175Z,18.07
2023-05-23T07:36:01.673Z,18.14
2023-05-23T07:38:28.433Z,18.11
2023-05-23T07:41:03.166Z,18.09
2023-05-23T07:43:37.316Z,18.30
2023-05-23T07:46:04.029Z,18.37
2023-05-23T07:48:31.770Z,18.48
2023-05-23T07:50:58.475Z,18.74
2023-05-23T07:53:25.147Z,18.64
2023-05-23T07:55:52.683Z,18.65
2023-05-23T07:58:21.234Z,18.78
2023-05-23T08:00:51.099Z,18.82
2023-05-23T08:03:39.237Z,18.93
2023-05-23T08:06:11.694Z,19.21
2023-05-23T08:08:39.110Z,19.25
2023-05-23T08:11:07.685Z,19.14
2023-05-23T08:13:40.856Z,19.16
2023-05-23T08:16:38.023Z,19.06
2023-05-23T08:19:13.392Z,18.84
2023-05-23T08:21:40.248Z,18.55
2023-05-23T08:24:07.062Z,18.75
2023-05-23T08:26:37.928Z,18.79
2023-05-23T08:29:06.429Z,18.80
2023-05-23T08:31:35.826Z,19.03
2023-05-23T08:34:08.402Z,19.02
2023-05-23T08:36:37.298Z,18.80
2023-05-23T08:39:06.369Z,18.80
2023-05-23T08:41:37.132Z,19.01
2023-05-23T08:44:09.330Z,18.84
2023-05-23T08:46:49.857Z,19.04
2023-05-23T08:49:43.983Z,18.99
2023-05-23T08:52:11.523Z,19.29
2023-05-23T08:54:41.244Z,19.57
2023-05-23T08:57:08.118Z,19.49
2023-05-23T08:59:40.895Z,19.01
2023-05-23T09:02:09.743Z,19.04
2023-05-23T09:04:36.862Z,18.93
2023-05-23T09:07:10.467Z,18.87
2023-05-23T09:09:37.960Z,18.86
2023-05-23T09:12:07.164Z,18.72
2023-05-23T09:14:37.565Z,18.86
2023-05-23T09:17:07.572Z,18.79
2023-05-23T09:19:34.419Z,19.01
2023-05-23T09:22:14.185Z,19.16
2023-05-23T09:24:53.562Z,19.11
2023-05-23T09:27:20.772Z,19.24
2023-05-23T09:29:50.851Z,19.34
2023-05-23T09:32:19.537Z,19.20
2023-05-23T09:34:58.757Z,19.34
2023-05-23T09:37:36.584Z,19.46
2023-05-23T09:40:07.363Z,19.10
2023-05-23T09:42:34.474Z,19.26
2023-05-23T09:45:03.776Z,19.43
2023-05-23T09:47:32.016Z,19.40
2023-05-23T09:49:58.726Z,19.22
2023-05-23T09:52:26.309Z,19.00
2023-05-23T09:54:53.062Z,18.95
2023-05-23T09:57:19.725Z,18.99
2023-05-23T09:59:50.944Z,19.07
2023-05-23T10:02:17.712Z,19.15
2023-05-23T10:04:44.467Z,19.19
2023-05-23T10:07:16.517Z,18.96
2023-05-23T10:09:43.813Z,19.04
2023-05-23T10:12:29.363Z,19.12
2023-05-23T10:14:57.985Z,19.23
2023-05-23T10:17:40.122Z,19.06
2023-05-23T10:20:09.226Z,19.13
2023-05-23T10:22:36.496Z,19.26
2023-05-23T10:25:07.581Z,19.20
2023-05-23T10:27:34.325Z,19.26
2023-05-23T10:30:01.063Z,19.08
2023-05-23T10:32:28.164Z,19.18
2023-05-23T10:34:54.840Z,19.12
2023-05-23T10:37:30.249Z,19.32
2023-05-23T10:40:06.564Z,19.31
2023-05-23T10:42:36.234Z,19.37
2023-05-23T10:45:18.332Z,19.22
2023-05-23T10:47:45.027Z,19.29
2023-05-23T10:50:15.264Z,19.29
2023-05-23T10:52:42.145Z,19.30
2023-05-23T10:55:17.935Z,19.15
2023-05-23T10:57:44.935Z,19.28
2023-05-23T11:00:16.104Z,19.36
2023-05-23T11:03:00.243Z,19.26
2023-05-23T11:05:31.940Z,19.37
2023-05-23T11:08:09.510Z,19.28
2023-05-23T11:10:54.902Z,19.47
2023-05-23T11:13:22.054Z,19.40
2023-05-23T11:15:49.071Z,19.39
2023-05-23T11:18:27.274Z,19.29
2023-05-23T11:20:54.511Z,19.61
2023-05-23T11:23:22.090Z,19.58
2023-05-23T11:25:49.423Z,19.71
2023-05-23T11:28:17.519Z,19.81
2023-05-23T11:30:44.260Z,19.83
2023-05-23T11:33:14.279Z,20.03
2023-05-23T11:35:41.829Z,20.10
2023-05-23T11:38:08.774Z,20.15
2023-05-23T11:40:42.891Z,20.16
2023-05-23T11:43:11.635Z,20.54
2023-05-23T11:45:39.030Z,20.82
2023-05-23T11:48:09.480Z,20.81
2023-05-23T11:50:47.896Z,20.76
2023-05-23T11:53:19.285Z,20.90
2023-05-23T11:55:49.282Z,20.82
2023-05-23T11:58:15.948Z,21.04
2023-05-23T12:00:46.088Z,21.40
2023-05-23T12:03:12.974Z,21.14
2023-05-23T12:05:39.833Z,20.98
2023-05-23T12:08:06.543Z,20.94
2023-05-23T12:10:33.582Z,20.75
2023-05-23T12:13:05.325Z,20.50
2023-05-23T12:15:32.263Z,20.58
2023-05-23T12:18:00.172Z,20.54
2023-05-23T12:20:26.894Z,20.50
2023-05-23T12:22:54.379Z,20.54
2023-05-23T12:25:23.445Z,20.73
2023-05-23T12:27:50.166Z,20.61
2023-05-23T12:30:16.991Z,21.13
2023-05-23T12:32:44.480Z,21.23
2023-05-23T12:35:15.301Z,21.69
2023-05-23T12:37:46.164Z,21.57
2023-05-23T12:40:15.013Z,21.56
2023-05-23T12:42:45.809Z,21.32
2023-05-23T12:45:14.041Z,21.10
2023-05-23T12:47:40.918Z,21.12
2023-05-23T12:50:08.213Z,21.00
2023-05-23T12:52:36.805Z,21.28
2023-05-23T12:55:03.742Z,21.51
2023-05-23T12:57:31.592Z,21.55
2023-05-23T12:59:59.130Z,21.83
2023-05-23T13:02:25.943Z,21.83
2023-05-23T13:04:52.655Z,22.03
2023-05-23T13:07:19.344Z,21.89
2023-05-23T13:09:45.982Z,21.40
2023-05-23T13:12:18.714Z,21.32
2023-05-23T13:14:45.708Z,21.04
2023-05-23T13:17:24.530Z,20.46
2023-05-23T13:19:51.669Z,20.57
2023-05-23T13:22:18.366Z,20.47
2023-05-23T13:24:45.127Z,20.53
2023-05-23T13:27:11.792Z,20.47
2023-05-23T13:29:38.509Z,20.35
2023-05-23T13:32:05.622Z,20.60
2023-05-23T13:34:32.335Z,20.75
2023-05-23T13:36:59.032Z,20.86
2023-05-23T13:39:25.737Z,20.72
2023-05-23T13:41:52.386Z,20.71
2023-05-23T13:44:19.038Z,20.67
2023-05-23T13:46:45.890Z,20.55
2023-05-23T13:49:18.837Z,20.54
2023-05-23T13:51:45.597Z,20.72
2023-05-23T13:54:13.663Z,20.81
2023-05-23T13:56:40.656Z,21.00
2023-05-23T13:59:11.784Z,20.88
2023-05-23T14:01:38.487Z,20.92
2023-05-23T14:04:06.997Z,20.86
2023-05-23T14:06:34.031Z,20.88
2023-05-23T14:09:00.862Z,21.00
2023-05-23T14:11:28.590Z,21.04
2023-05-23T14:13:55.351Z,21.03
2023-05-23T14:16:22.095Z,20.92
2023-05-23T14:18:49.113Z,21.30
2023-05-23T14:21:16.143Z,21.35
2023-05-23T14:23:43.605Z,21.37
2023-05-23T14:26:10.398Z,21.08
2023-05-23T14:28:38.182Z,20.90
2023-05-23T14:31:04.921Z,20.94
2023-05-23T14:33:33.905Z,20.98
2023-05-23T14:36:01.054Z,21.23
2023-05-23T14:38:27.800Z,21.08
2023-05-23T14:40:55.101Z,21.22
2023-05-23T14:43:21.848Z,21.17
2023-05-23T14:45:48.606Z,21.14
2023-05-23T14:48:15.356Z,20.97
2023-05-23T14:50:44.957Z,21.22
2023-05-23T14:53:11.651Z,21.34
2023-05-23T14:55:38.394Z,21.40
2023-05-23T14:58:06.513Z,21.25
2023-05-23T15:00:33.497Z,21.22
2023-05-23T15:03:00.787Z,21.03
2023-05-23T15:05:27.470Z,20.87
2023-05-23T15:07:54.273Z,20.77
2023-05-23T15:10:21.764Z,20.78
2023-05-23T15:12:48.643Z,20.74
2023-05-23T15:15:22.834Z,20.75
2023-05-23T15:17:50.965Z,20.12
2023-05-23T15:20:18.084Z,20.01
2023-05-23T15:22:44.761Z,20.12
2023-05-23T15:25:11.560Z,20.72
2023-05-23T15:27:41.752Z,20.86
2023-05-23T15:30:09.628Z,20.42
2023-05-23T15:32:36.330Z,20.60
2023-05-23T15:35:03.010Z,20.71
2023-05-23T15:37:29.664Z,21.02
2023-05-23T15:39:56.420Z,21.21
2023-05-23T15:42:23.108Z,20.98
2023-05-23T15:44:49.888Z,21.05
2023-05-23T15:47:16.681Z,21.03
2023-05-23T15:49:43.344Z,20.89
2023-05-23T15:52:10.076Z,21.07
2023-05-23T15:54:39.162Z,21.14
2023-05-23T15:57:05.953Z,21.10
2023-05-23T15:59:32.685Z,21.00
2023-05-23T16:01:59.547Z,21.08
2023-05-23T16:04:26.718Z,21.15
2023-05-23T16:06:53.353Z,21.18
2023-05-23T16:09:20.059Z,20.90
2023-05-23T16:11:46.733Z,20.81
2023-05-23T16:14:13.425Z,20.80
2023-05-23T16:16:40.245Z,20.88
2023-05-23T16:19:07.141Z,20.73
2023-05-23T16:21:34.127Z,20.70
2023-05-23T16:24:00.903Z,20.50
2023-05-23T16:26:28.358Z,20.46
2023-05-23T16:28:55.028Z,20.39
2023-05-23T16:31:25.735Z,20.38
2023-05-23T16:33:52.461Z,20.37
2023-05-23T16:36:19.099Z,20.36
2023-05-23T16:38:46.314Z,20.20
2023-05-23T16:41:13.028Z,20.20
2023-05-23T16:43:39.883Z,20.14
2023-05-23T16:46:06.622Z,20.08
2023-05-23T16:48:33.282Z,19.95
2023-05-23T16:50:59.974Z,19.96
2023-05-23T16:53:26.619Z,20.02
2023-05-23T16:55:53.274Z,20.06
2023-05-23T16:58:21.271Z,20.22
2023-05-23T17:00:48.082Z,20.21
2023-05-23T17:03:14.831Z,20.03
2023-05-23T17:05:41.846Z,19.97
2023-05-23T17:08:11.925Z,19.97
2023-05-23T17:10:38.615Z,19.85
2023-05-23T17:13:05.268Z,19.73
2023-05-23T17:15:32.083Z,19.77
2023-05-23T17:17:58.794Z,19.82
2023-05-23T17:20:27.166Z,19.67
2023-05-23T17:22:53.976Z,19.77
2023-05-23T17:25:21.082Z,19.48
2023-05-23T17:27:47.748Z,19.51
2023-05-23T17:30:20.264Z,19.58
2023-05-23T17:32:47.037Z,19.60
2023-05-23T17:35:13.902Z,19.43
2023-05-23T17:37:43.694Z,19.40
2023-05-23T17:40:14.172Z,19.39
2023-05-23T17:42:43.951Z,19.35
2023-05-23T17:45:10.743Z,19.25
2023-05-23T17:47:37.443Z,19.15
2023-05-23T17:50:04.661Z,19.07
2023-05-23T17:52:31.337Z,19.12
2023-05-23T17:54:58.171Z,19.15
2023-05-23T17:57:24.924Z,19.14
2023-05-23T17:59:51.876Z,19.07
2023-05-23T18:02:18.770Z,19.16
2023-05-23T18:04:45.503Z,19.24
2023-05-23T18:07:12.274Z,19.06
2023-05-23T18:09:39.079Z,18.94
2023-05-23T18:12:06.080Z,18.95
2023-05-23T18:14:32.832Z,19.03
2023-05-23T18:16:59.565Z,19.09
2023-05-23T18:19:26.295Z,18.90
2023-05-23T18:21:52.976Z,18.77
2023-05-23T18:24:19.843Z,18.93
2023-05-23T18:26:46.520Z,18.84
2023-05-23T18:29:13.278Z,18.59
2023-05-23T18:31:40.270Z,18.43
2023-05-23T18:34:07.132Z,18.30
2023-05-23T18:36:33.907Z,18.46
2023-05-23T18:39:00.584Z,18.56
2023-05-23T18:41:28.163Z,18.45
2023-05-23T18:43:54.846Z,18.30
2023-05-23T18:46:21.676Z,18.28
2023-05-23T18:48:48.982Z,18.20
2023-05-23T18:51:15.777Z,18.41
2023-05-23T18:53:43.365Z,18.50
2023-05-23T18:56:10.096Z,18.40
2023-05-23T18:58:39.548Z,18.32
2023-05-23T19:01:07.145Z,18.10
2023-05-23T19:03:35.188Z,18.12
2023-05-23T19:06:04.680Z,17.98
2023-05-23T19:08:31.997Z,17.92
2023-05-23T19:11:05.926Z,17.89
2023-05-23T19:13:32.784Z,17.76
2023-05-23T19:15:59.646Z,17.63
2023-05-23T19:18:26.587Z,17.62
2023-05-23T19:20:54.335Z,17.67
2023-05-23T19:23:21.089Z,17.63
2023-05-23T19:25:47.822Z,17.58
2023-05-23T19:28:17.265Z,17.42
2023-05-23T19:30:45.835Z,17.49
2023-05-23T19:33:12.656Z,17.40
2023-05-23T19:35:43.272Z,17.63
2023-05-23T19:38:10.074Z,17.36
2023-05-23T19:40:39.916Z,17.35
2023-05-23T19:43:07.733Z,17.36
2023-05-23T19:45:34.401Z,17.33
2023-05-23T19:48:04.551Z,17.45
2023-05-23T19:50:34.287Z,17.50
2023-05-23T19:53:01.152Z,17.26
2023-05-23T19:55:27.814Z,17.44
2023-05-23T19:57:54.531Z,17.46
2023-05-23T20:00:21.729Z,17.40
2023-05-23T20:02:48.415Z,17.45
2023-05-23T20:05:15.090Z,17.48
2023-05-23T20:07:41.836Z,17.23
2023-05-23T20:10:09.048Z,17.28
2023-05-23T20:12:35.854Z,17.23
2023-05-23T20:15:02.754Z,17.28
2023-05-23T20:17:30.164Z,17.37
2023-05-23T20:19:57.205Z,17.34
2023-05-23T20:22:24.079Z,17.34
2023-05-23T20:24:50.868Z,17.31
2023-05-23T20:27:18.016Z,17.26
2023-05-23T20:29:44.690Z,17.26
2023-05-23T20:32:20.148Z,17.26
2023-05-23T20:34:46.924Z,17.10
2023-05-23T20:37:14.690Z,17.18
2023-05-23T20:39:44.063Z,17.14
2023-05-23T20:42:10.902Z,17.24
2023-05-23T20:44:38.059Z,17.09
2023-05-23T20:47:06.303Z,16.94
2023-05-23T20:49:34.952Z,16.88
2023-05-23T20:52:01.779Z,17.01
2023-05-23T20:54:28.496Z,16.96
2023-05-23T20:56:55.164Z,16.84
2023-05-23T20:59:21.870Z,16.86
2023-05-23T21:01:49.238Z,16.84
2023-05-23T21:04:18.747Z,16.71
2023-05-23T21:06:45.563Z,16.64
2023-05-23T21:09:13.804Z,16.66
2023-05-23T21:11:40.454Z,16.55
2023-05-23T21:14:07.203Z,16.62
2023-05-23T21:16:33.895Z,16.61
2023-05-23T21:19:00.689Z,16.49
2023-05-23T21:21:30.555Z,16.58
2023-05-23T21:23:57.223Z,16.33
2023-05-23T21:26:23.875Z,16.36
2023-05-23T21:28:50.568Z,16.24
2023-05-23T21:31:24.066Z,16.20
2023-05-23T21:33:56.591Z,16.17
2023-05-23T21:36:23.265Z,16.07
2023-05-23T21:38:49.904Z,16.15
2023-05-23T21:41:16.908Z,16.10
2023-05-23T21:43:44.641Z,16.13
2023-05-23T21:46:11.387Z,16.18
2023-05-23T21:48:38.065Z,15.83
2023-05-23T21:51:04.819Z,15.89
2023-05-23T21:53:31.679Z,15.80
2023-05-23T21:55:58.574Z,15.89
2023-05-23T21:58:25.215Z,15.72
2023-05-23T22:00:51.862Z,15.81
2023-05-23T22:03:18.612Z,15.71
2023-05-23T22:05:45.325Z,15.70
2023-05-23T22:08:12.087Z,15.83
2023-05-23T22:10:40.538Z,15.59
2023-05-23T22:13:07.607Z,15.75
2023-05-23T22:15:35.585Z,15.56
2023-05-23T22:18:02.319Z,15.74
2023-05-23T22:20:29.876Z,15.79
2023-05-23T22:22:56.589Z,15.80
2023-05-23T22:25:25.194Z,15.49
2023-05-23T22:27:52.128Z,15.57
2023-05-23T22:30:18.841Z,15.53
2023-05-23T22:32:45.895Z,15.48
2023-05-23T22:35:12.633Z,15.32
2023-05-23T22:37:39.285Z,15.42
2023-05-23T22:40:06.763Z,15.48
2023-05-23T22:42:33.427Z,15.34
2023-05-23T22:45:00.314Z,15.42
2023-05-23T22:47:29.404Z,15.25
2023-05-23T22:49:59.867Z,15.48
2023-05-23T22:52:26.585Z,15.40
2023-05-23T22:54:53.254Z,15.33
2023-05-23T22:57:19.926Z,15.23
2023-05-23T22:59:46.674Z,15.30
2023-05-23T23:02:13.460Z,15.30
2023-05-23T23:04:41.915Z,15.21
2023-05-23T23:07:08.903Z,15.18
2023-05-23T23:09:35.568Z,15.32
2023-05-23T23:12:02.256Z,15.39
2023-05-23T23:14:28.914Z,15.44
2023-05-23T23:16:56.163Z,15.37
2023-05-23T23:19:22.902Z,15.52
2023-05-23T23:21:49.835Z,15.42
2023-05-23T23:24:16.499Z,15.28
2023-05-23T23:26:43.157Z,15.34
2023-05-23T23:29:09.853Z,15.11
2023-05-23T23:31:36.639Z,15.14
2023-05-23T23:34:03.329Z,15.13
2023-05-23T23:36:29.987Z,15.19
2023-05-23T23:38:56.622Z,15.12
2023-05-23T23:41:23.472Z,14.73
2023-05-23T23:43:50.140Z,15.06
2023-05-23T23:46:18.948Z,14.89
2023-05-23T23:48:45.768Z,14.88
2023-05-23T23:51:13.107Z,14.93
2023-05-23T23:53:49.235Z,14.95
2023-05-23T23:56:17.659Z,15.01
2023-05-23T23:58:44.306Z,14.95
